Time;durP1;ratioP1;P1;durP2;ratioP2;P2;SDS_P1;SDS_P2;PMS_P1;PMS_P2;Temp;Humidity;BMP_temperature;BMP_pressure;BME280_temperature;BME280_humidity;BME280_pressure;Samples;Min_cycle;Max_cycle;Signal;HPM_P1;HPM_P2
2023/03/11 00:00:43;;;;;;;50.17;27.57;;;;;;;-144.73;100.00;54539.06;5054443;28;20028;-73
2023/03/11 00:03:11;;;;;;;49.63;28.40;;;;;;;-144.73;100.00;54493.91;5052732;28;20029;-73
2023/03/11 00:05:38;;;;;;;48.90;29.43;;;;;;;-144.73;100.00;54512.38;5054296;28;20161;-73
2023/03/11 00:08:06;;;;;;;59.37;27.93;;;;;;;-144.73;100.00;54493.91;5054455;28;20031;-73
2023/03/11 00:10:40;;;;;;;49.50;28.67;;;;;;;-144.73;100.00;54498.00;5055002;28;20016;-73
2023/03/11 00:13:07;;;;;;;61.77;30.77;;;;;;;-144.73;100.00;54493.91;5053533;28;20074;-73
2023/03/11 00:15:33;;;;;;;50.87;29.03;;;;;;;-144.73;100.00;54516.47;5054136;28;20025;-72
2023/03/11 00:17:58;;;;;;;51.73;31.00;;;;;;;-144.73;100.00;54522.63;5054428;28;20112;-72
2023/03/11 00:20:30;;;;;;;58.23;31.43;;;;;;;-144.73;100.00;54495.97;5054557;28;20056;-73
2023/03/11 00:22:56;;;;;;;58.27;30.93;;;;;;;-144.73;100.00;54526.75;5054209;28;20028;-73
2023/03/11 00:25:24;;;;;;;59.10;31.87;;;;;;;-144.73;100.00;54539.06;5054079;28;20020;-73
2023/03/11 00:27:50;;;;;;;59.33;32.43;;;;;;;-144.73;100.00;54539.06;5053292;28;20067;-73
2023/03/11 00:30:16;;;;;;;67.17;33.90;;;;;;;-144.73;100.00;54539.06;5064613;28;20662;-73
2023/03/11 00:32:42;;;;;;;62.07;35.57;;;;;;;-144.73;100.00;54506.22;5053600;28;20443;-73
2023/03/11 00:35:12;;;;;;;63.10;35.83;;;;;;;-144.73;100.00;54522.63;5050945;28;20025;-73
2023/03/11 00:37:37;;;;;;;71.03;34.67;;;;;;;-144.73;100.00;54489.81;5053564;28;20029;-73
2023/03/11 00:40:07;;;;;;;60.50;32.30;;;;;;;-144.73;100.00;54539.06;5053800;28;20031;-73
2023/03/11 00:42:32;;;;;;;69.37;34.43;;;;;;;-144.73;100.00;54493.91;5053124;28;20025;-73
2023/03/11 00:44:58;;;;;;;63.00;34.87;;;;;;;-144.73;100.00;54506.22;5070702;28;20027;-74
2023/03/11 00:47:23;;;;;;;63.80;35.10;;;;;;;-144.73;100.00;54481.59;5053342;28;20264;-73
2023/03/11 00:49:48;;;;;;;72.97;32.93;;;;;;;-144.73;100.00;54522.63;5054308;28;20024;-73
2023/03/11 00:52:14;;;;;;;65.07;33.73;;;;;;;-144.73;100.00;54518.53;5053310;28;20032;-73
2023/03/11 00:54:39;;;;;;;66.13;35.43;;;;;;;-144.73;100.00;54516.47;5053850;28;20021;-73
2023/03/11 00:57:04;;;;;;;59.37;35.40;;;;;;;-144.73;100.00;54506.22;5052659;28;20040;-73
2023/03/11 00:59:30;;;;;;;55.30;34.07;;;;;;;-144.73;100.00;54551.38;5053676;28;20024;-72
2023/03/11 01:01:55;;;;;;;69.97;34.40;;;;;;;-144.73;100.00;54493.91;5053152;28;20031;-73
2023/03/11 01:04:21;;;;;;;57.17;31.03;;;;;;;-144.73;100.00;54510.31;5069287;28;20047;-73
2023/03/11 01:06:46;;;;;;;67.57;35.27;;;;;;;-144.73;100.00;54543.16;5052892;28;20107;-73
2023/03/11 01:09:12;;;;;;;61.10;32.97;;;;;;;-144.73;100.00;54510.31;5053291;28;20020;-73
2023/03/11 01:11:37;;;;;;;62.87;33.57;;;;;;;-144.73;100.00;54518.53;5052978;28;20056;-73
2023/03/11 01:14:03;;;;;;;65.07;34.67;;;;;;;-144.73;100.00;54522.63;5070777;28;20082;-73
2023/03/11 01:16:28;;;;;;;67.17;35.40;;;;;;;-144.73;100.00;54489.81;5053395;28;20036;-73
2023/03/11 01:18:53;;;;;;;61.57;32.87;;;;;;;-144.73;100.00;54510.31;5053330;28;20485;-73
2023/03/11 01:21:19;;;;;;;67.53;35.40;;;;;;;-144.73;100.00;54530.84;5052370;28;20055;-73
2023/03/11 01:23:44;;;;;;;74.13;35.17;;;;;;;-144.73;100.00;54539.06;5047686;28;20021;-73
2023/03/11 01:26:09;;;;;;;74.70;36.97;;;;;;;-144.73;100.00;54506.22;5050450;28;20106;-73
2023/03/11 01:28:35;;;;;;;68.20;36.53;;;;;;;-144.73;100.00;54530.84;5053421;28;20040;-74
2023/03/11 01:31:00;;;;;;;67.57;35.43;;;;;;;-144.73;100.00;54506.22;5052270;28;20111;-74
2023/03/11 01:33:26;;;;;;;67.03;35.53;;;;;;;-144.73;100.00;54493.91;5053201;28;20029;-74
2023/03/11 01:35:51;;;;;;;70.37;38.33;;;;;;;-144.73;100.00;54518.53;5052237;28;20075;-74
2023/03/11 01:38:17;;;;;;;68.83;37.73;;;;;;;-144.73;100.00;54522.63;5052794;28;20123;-74
2023/03/11 01:40:44;;;;;;;66.80;34.57;;;;;;;-144.73;100.00;54510.31;5052604;28;20027;-74
2023/03/11 01:43:44;;;;;;;62.57;34.67;;;;;;;-144.73;100.00;54530.84;5051636;28;20055;-74
2023/03/11 01:46:23;;;;;;;56.57;29.93;;;;;;;-144.73;100.00;54514.44;5052369;28;20033;-74
2023/03/11 01:48:51;;;;;;;54.33;30.00;;;;;;;-144.73;100.00;54530.84;5053135;28;20051;-74
2023/03/11 01:51:22;;;;;;;58.03;31.77;;;;;;;-144.73;100.00;54485.69;5051462;28;20040;-74
2023/03/11 01:53:47;;;;;;;59.33;30.58;;;;;;;-144.73;100.00;54541.13;5071215;28;20052;-74
2023/03/11 01:56:13;;;;;;;51.17;32.27;;;;;;;-144.73;100.00;54530.84;5070488;28;20083;-74
2023/03/11 01:58:43;;;;;;;50.20;31.63;;;;;;;-144.73;100.00;54506.22;5053951;28;20448;-74
2023/03/11 02:01:11;;;;;;;57.57;30.53;;;;;;;-144.73;100.00;54543.16;5052898;28;20037;-74
2023/03/11 02:03:39;;;;;;;55.97;28.77;;;;;;;-144.73;100.00;54481.59;5071157;28;20024;-74
2023/03/11 02:06:09;;;;;;;49.23;31.20;;;;;;;-144.73;100.00;54539.06;5052033;28;20044;-74
2023/03/11 02:08:35;;;;;;;52.20;29.97;;;;;;;-144.73;100.00;54522.63;5054196;28;20028;-74
2023/03/11 02:11:03;;;;;;;47.70;27.83;;;;;;;-144.73;100.00;54522.63;5053115;28;20020;-74
2023/03/11 02:13:33;;;;;;;51.27;28.87;;;;;;;-144.73;100.00;54543.16;5053352;28;20032;-74
2023/03/11 02:15:59;;;;;;;49.20;28.27;;;;;;;-144.73;100.00;54520.59;5051733;28;20089;-75
2023/03/11 02:18:25;;;;;;;48.30;27.17;;;;;;;-144.73;100.00;54518.53;5053349;28;20506;-75
2023/03/11 02:21:08;;;;;;;53.60;29.83;;;;;;;-144.73;100.00;54498.00;5052662;28;20024;-75
2023/03/11 02:24:05;;;;;;;47.17;27.20;;;;;;;-144.73;100.00;54510.31;5047928;28;20036;-75
2023/03/11 02:26:34;;;;;;;53.20;29.33;;;;;;;-144.73;100.00;54518.53;5051007;28;20086;-75
2023/03/11 02:29:03;;;;;;;56.90;29.17;;;;;;;-144.73;100.00;54530.84;5057359;28;20031;-75
2023/03/11 02:31:30;;;;;;;53.53;31.00;;;;;;;-144.73;100.00;54510.31;5056647;28;20055;-75
2023/03/11 02:33:58;;;;;;;51.10;28.87;;;;;;;-144.73;100.00;54493.91;5055580;28;20119;-75
2023/03/11 02:36:35;;;;;;;56.03;29.67;;;;;;;-144.73;100.00;54502.13;5056552;28;20062;-75
2023/03/11 02:39:01;;;;;;;54.03;30.60;;;;;;;-144.73;100.00;54530.84;5057671;28;20048;-74
2023/03/11 02:41:28;;;;;;;59.43;30.63;;;;;;;-144.73;100.00;54502.13;5074659;28;20040;-74
2023/03/11 02:43:55;;;;;;;56.77;29.67;;;;;;;-144.73;100.00;54510.31;5058193;28;20029;-74
2023/03/11 02:46:20;;;;;;;53.40;29.40;;;;;;;-144.73;100.00;54539.06;5059316;28;20100;-75
2023/03/11 02:48:47;;;;;;;54.53;29.87;;;;;;;-144.73;100.00;54502.13;5058921;28;20506;-74
2023/03/11 02:51:12;;;;;;;50.50;27.77;;;;;;;-144.73;100.00;54539.06;5045048;28;20107;-74
2023/03/11 02:53:46;;;;;;;47.70;27.93;;;;;;;-144.73;100.00;54526.75;5052637;28;20024;-75
2023/03/11 02:56:11;;;;;;;56.20;30.63;;;;;;;-144.73;100.00;54518.53;5060248;28;20033;-75
2023/03/11 02:58:37;;;;;;;51.13;28.33;;;;;;;-144.73;100.00;54514.44;5058940;28;20107;-75
2023/03/11 03:01:02;;;;;;;61.03;29.43;;;;;;;-144.73;100.00;54530.84;5077656;28;20048;-75
2023/03/11 03:03:27;;;;;;;54.73;29.30;;;;;;;-144.73;100.00;54491.84;5059976;28;20027;-75
2023/03/11 03:05:53;;;;;;;52.47;28.83;;;;;;;-144.73;100.00;54506.22;5059719;28;20163;-76
2023/03/11 03:08:18;;;;;;;51.57;29.50;;;;;;;-144.73;100.00;54493.91;5059941;28;20032;-76
2023/03/11 03:10:44;;;;;;;51.93;27.70;;;;;;;-144.73;100.00;54530.84;5063709;28;20276;-75
2023/03/11 03:13:09;;;;;;;56.43;26.70;;;;;;;-144.73;100.00;54498.00;5061625;28;20037;-74
2023/03/11 03:15:35;;;;;;;45.43;27.27;;;;;;;-144.73;100.00;54514.44;5062245;28;20028;-76
2023/03/11 03:18:00;;;;;;;50.40;27.93;;;;;;;-144.73;100.00;54522.63;5061978;28;20060;-74
2023/03/11 03:20:25;;;;;;;50.40;29.57;;;;;;;-144.73;100.00;54485.69;5060051;28;20021;-74
2023/03/11 03:22:51;;;;;;;49.20;28.97;;;;;;;-144.73;100.00;54539.06;5059925;28;20029;-74
2023/03/11 03:25:16;;;;;;;41.57;25.17;;;;;;;-144.73;100.00;54514.44;5061242;28;20471;-75
2023/03/11 03:27:42;;;;;;;44.93;25.70;;;;;;;-144.73;100.00;54510.31;5060405;28;20025;-75
2023/03/11 03:30:09;;;;;;;42.77;24.63;;;;;;;-144.73;100.00;54498.00;5055218;28;20066;-75
2023/03/11 03:32:35;;;;;;;47.00;25.33;;;;;;;-144.73;100.00;54502.13;5076088;28;20052;-74
2023/03/11 03:35:01;;;;;;;41.80;23.30;;;;;;;-144.73;100.00;54477.47;5058217;28;20028;-75
2023/03/11 03:37:27;;;;;;;36.10;21.50;;;;;;;-144.73;100.00;54506.22;5052123;28;20051;-74
2023/03/11 03:39:53;;;;;;;34.70;20.10;;;;;;;-144.73;100.00;54510.31;5058303;28;20068;-75
2023/03/11 03:42:18;;;;;;;31.23;19.10;;;;;;;-144.73;100.00;54510.31;5051245;28;20116;-75
2023/03/11 03:44:44;;;;;;;34.70;20.77;;;;;;;-144.73;100.00;54514.44;5057771;28;20017;-75
2023/03/11 03:47:10;;;;;;;40.90;21.70;;;;;;;-144.73;100.00;54510.31;5074995;28;20035;-75
2023/03/11 03:49:36;;;;;;;38.37;22.23;;;;;;;-144.73;100.00;54510.31;5045862;28;20028;-74
2023/03/11 03:52:04;;;;;;;38.97;20.33;;;;;;;-144.73;100.00;54539.06;5054260;28;20028;-74
2023/03/11 03:54:29;;;;;;;37.23;20.80;;;;;;;-144.73;100.00;54539.06;5050583;28;20016;-74
2023/03/11 03:56:55;;;;;;;37.50;22.70;;;;;;;-144.73;100.00;54508.28;5058536;28;20035;-74
2023/03/11 03:59:20;;;;;;;39.07;20.93;;;;;;;-144.73;100.00;54498.00;5058949;28;20116;-74
2023/03/11 04:01:46;;;;;;;36.50;22.47;;;;;;;-144.73;100.00;54526.75;5057035;28;20052;-75
2023/03/11 04:04:11;;;;;;;49.63;25.07;;;;;;;-144.73;100.00;54493.91;5056947;28;20481;-75
2023/03/11 04:06:36;;;;;;;43.40;23.20;;;;;;;-144.73;100.00;54506.22;5057527;28;20074;-74
2023/03/11 04:09:02;;;;;;;42.00;23.30;;;;;;;-144.73;100.00;54522.63;5076486;28;20017;-74
2023/03/11 04:11:27;;;;;;;41.23;22.53;;;;;;;-144.73;100.00;54514.44;5058300;28;20024;-74
2023/03/11 04:13:53;;;;;;;41.83;22.83;;;;;;;-144.73;100.00;54500.06;5060426;28;20084;-75
2023/03/11 04:16:22;;;;;;;37.93;21.67;;;;;;;-144.73;100.00;54543.16;5051325;28;20089;-75
2023/03/11 04:18:48;;;;;;;49.23;25.57;;;;;;;-144.73;100.00;54522.63;5051180;28;20377;-75
2023/03/11 04:21:13;;;;;;;48.27;25.47;;;;;;;-144.73;100.00;54514.44;5060328;28;20041;-75
2023/03/11 04:23:39;;;;;;;42.13;23.23;;;;;;;-144.73;100.00;54516.47;5062613;28;20035;-74
2023/03/11 04:26:04;;;;;;;41.20;23.53;;;;;;;-144.73;100.00;54518.53;5061515;28;20020;-75
2023/03/11 04:28:30;;;;;;;42.83;23.20;;;;;;;-144.73;100.00;54493.91;5063733;28;20043;-74
2023/03/11 04:30:55;;;;;;;45.07;22.87;;;;;;;-144.73;100.00;54539.06;5061653;28;20048;-74
2023/03/11 04:33:21;;;;;;;44.03;24.83;;;;;;;-144.73;100.00;54506.22;5062489;28;20035;-74
2023/03/11 04:35:46;;;;;;;40.60;23.30;;;;;;;-144.73;100.00;54518.53;5064377;28;20020;-75
2023/03/11 04:38:12;;;;;;;37.97;21.77;;;;;;;-144.73;100.00;54522.63;5062968;28;20032;-74
2023/03/11 04:40:37;;;;;;;40.33;22.43;;;;;;;-144.73;100.00;54489.81;5080461;28;20020;-75
2023/03/11 04:43:03;;;;;;;39.37;23.83;;;;;;;-144.73;100.00;54512.38;5062314;28;20033;-74
2023/03/11 04:45:28;;;;;;;45.17;22.53;;;;;;;-144.73;100.00;54489.81;5052933;28;20024;-73
2023/03/11 04:47:54;;;;;;;45.60;22.67;;;;;;;-144.73;100.00;54604.75;5060793;28;20039;-74
2023/03/11 04:50:19;;;;;;;40.00;22.13;;;;;;;-144.73;100.00;54539.06;5060899;28;20016;-75
2023/03/11 04:52:46;;;;;;;45.03;23.83;;;;;;;-144.73;100.00;54477.47;5059917;28;20036;-73
2023/03/11 04:55:12;;;;;;;44.33;23.47;;;;;;;-144.73;100.00;54502.13;5059623;28;20024;-73
2023/03/11 04:57:39;;;;;;;39.47;22.87;;;;;;;-144.73;100.00;54493.91;5058902;28;20020;-73
2023/03/11 05:00:08;;;;;;;38.23;22.23;;;;;;;-144.73;100.00;54491.84;5057847;28;20047;-73
2023/03/11 05:02:34;;;;;;;44.00;21.37;;;;;;;-144.73;100.00;54510.31;5057199;28;20032;-73
2023/03/11 05:04:59;;;;;;;38.17;21.23;;;;;;;-144.73;100.00;54512.38;5056886;28;20024;-73
2023/03/11 05:07:24;;;;;;;47.13;23.50;;;;;;;-144.73;100.00;54506.22;5057798;28;20033;-72
2023/03/11 05:09:50;;;;;;;37.87;22.63;;;;;;;-144.73;100.00;54539.06;5059278;28;20093;-73
2023/03/11 05:12:16;;;;;;;42.97;22.17;;;;;;;-144.73;100.00;54481.59;5059188;28;20066;-74
2023/03/11 05:14:41;;;;;;;47.00;24.83;;;;;;;-144.73;100.00;54539.06;5078026;28;20038;-74
2023/03/11 05:17:06;;;;;;;51.63;23.00;;;;;;;-144.73;100.00;54522.63;5076355;28;20099;-73
2023/03/11 05:19:33;;;;;;;48.53;25.07;;;;;;;-144.73;100.00;54498.00;5058776;28;20031;-73
2023/03/11 05:22:01;;;;;;;47.77;24.47;;;;;;;-144.73;100.00;54489.81;5056851;28;20029;-73
2023/03/11 05:24:27;;;;;;;43.90;23.60;;;;;;;-144.73;100.00;54506.22;5049191;28;20021;-73
2023/03/11 05:26:53;;;;;;;45.97;24.00;;;;;;;-144.73;100.00;54493.91;5074872;28;20082;-73
2023/03/11 05:29:18;;;;;;;46.70;23.20;;;;;;;-144.73;100.00;54506.22;5056982;28;20017;-73
2023/03/11 05:31:43;;;;;;;45.97;26.00;;;;;;;-144.73;100.00;54530.84;5056272;28;20455;-72
2023/03/11 05:34:09;;;;;;;54.43;26.13;;;;;;;-144.73;100.00;54512.38;5057500;28;20024;-72
2023/03/11 05:36:34;;;;;;;54.43;24.13;;;;;;;-144.73;100.00;54539.06;5058200;28;20389;-72
2023/03/11 05:38:59;;;;;;;50.27;28.07;;;;;;;-144.73;100.00;54518.53;5059128;28;20028;-73
2023/03/11 05:41:25;;;;;;;51.77;26.33;;;;;;;-144.73;100.00;54563.69;5075654;28;20024;-73
2023/03/11 05:43:50;;;;;;;45.63;24.43;;;;;;;-144.73;100.00;54502.13;5058239;28;20063;-72
2023/03/11 05:46:16;;;;;;;53.70;26.90;;;;;;;-144.73;100.00;54539.06;5056557;28;20059;-72
2023/03/11 05:48:41;;;;;;;51.90;24.23;;;;;;;-144.73;100.00;54489.81;5076079;28;20028;-72
2023/03/11 05:51:08;;;;;;;44.70;24.30;;;;;;;-144.73;100.00;54547.28;5056673;28;20033;-72
2023/03/11 05:53:33;;;;;;;47.27;23.27;;;;;;;-144.73;100.00;54518.53;5058675;28;20029;-73
2023/03/11 05:56:00;;;;;;;49.20;24.37;;;;;;;-144.73;100.00;54547.28;5056716;28;20024;-71
2023/03/11 05:58:30;;;;;;;45.03;23.97;;;;;;;-144.73;100.00;54489.81;5075174;28;20025;-72
2023/03/11 06:00:56;;;;;;;49.03;26.60;;;;;;;-144.73;100.00;54465.16;5055489;28;20032;-72
2023/03/11 06:03:21;;;;;;;49.93;25.30;;;;;;;-144.73;100.00;54510.31;5056860;28;20055;-71
2023/03/11 06:05:48;;;;;;;50.47;24.67;;;;;;;-144.73;100.00;54502.13;5056377;28;20111;-72
2023/03/11 06:08:14;;;;;;;49.67;23.87;;;;;;;-144.73;100.00;54543.16;5057097;28;20062;-71
2023/03/11 06:10:40;;;;;;;46.10;24.50;;;;;;;-144.73;100.00;54539.06;5055464;28;20021;-71
2023/03/11 06:13:06;;;;;;;41.50;22.27;;;;;;;-144.73;100.00;54539.06;5073385;28;20118;-71
2023/03/11 06:15:32;;;;;;;40.77;22.70;;;;;;;-144.73;100.00;54487.75;5074028;28;20024;-71
2023/03/11 06:17:58;;;;;;;41.27;21.00;;;;;;;-144.73;100.00;54514.44;5055810;28;20108;-71
2023/03/11 06:20:24;;;;;;;49.10;22.17;;;;;;;-144.73;100.00;54508.28;5055635;28;20061;-72
2023/03/11 06:22:50;;;;;;;40.50;19.87;;;;;;;-144.73;100.00;54526.75;5054775;28;20028;-71
2023/03/11 06:25:16;;;;;;;39.87;20.30;;;;;;;-144.73;100.00;54473.38;5054765;28;20025;-71
2023/03/11 06:27:43;;;;;;;36.97;20.03;;;;;;;-144.73;100.00;54514.44;5046365;28;20028;-71
2023/03/11 06:30:09;;;;;;;34.07;19.23;;;;;;;-144.73;100.00;54539.06;5047373;28;20017;-70
2023/03/11 06:32:35;;;;;;;40.60;20.63;;;;;;;-144.73;100.00;54506.22;5054006;28;20116;-71
2023/03/11 06:35:02;;;;;;;35.70;19.57;;;;;;;-144.73;100.00;54508.28;5054464;28;20017;-71
2023/03/11 06:37:27;;;;;;;37.00;20.93;;;;;;;-144.73;100.00;54498.00;5054467;28;20029;-72
2023/03/11 06:39:53;;;;;;;38.33;20.63;;;;;;;-144.73;100.00;54539.06;5054752;28;20032;-71
2023/03/11 06:42:19;;;;;;;35.77;19.60;;;;;;;-144.73;100.00;54518.53;5054350;28;20032;-71
2023/03/11 06:44:48;;;;;;;39.57;19.43;;;;;;;-144.73;100.00;54493.91;5058175;28;20024;-71
2023/03/11 06:47:14;;;;;;;36.73;19.63;;;;;;;-144.73;100.00;54516.47;5058437;28;20037;-71
2023/03/11 06:49:41;;;;;;;42.97;19.33;;;;;;;-144.73;100.00;54514.44;5059017;28;20012;-71
2023/03/11 06:52:07;;;;;;;43.17;19.07;;;;;;;-144.73;100.00;54498.00;5058688;28;20093;-71
2023/03/11 06:54:33;;;;;;;36.83;19.67;;;;;;;-144.73;100.00;54516.47;5059444;28;20047;-71
2023/03/11 06:56:58;;;;;;;37.53;19.20;;;;;;;-144.73;100.00;54510.31;5059056;28;20032;-72
2023/03/11 06:59:24;;;;;;;36.73;19.57;;;;;;;-144.73;100.00;54514.44;5058542;28;20031;-72
2023/03/11 07:01:49;;;;;;;35.20;18.27;;;;;;;-144.73;100.00;54543.16;5058659;28;20132;-72
2023/03/11 07:04:15;;;;;;;37.43;18.97;;;;;;;-144.73;100.00;54502.13;5059563;28;20025;-72
2023/03/11 07:06:41;;;;;;;35.67;18.53;;;;;;;-144.73;100.00;54522.63;5059051;28;20111;-72
2023/03/11 07:09:06;;;;;;;33.50;17.93;;;;;;;-144.73;100.00;54522.63;5058913;28;20036;-72
2023/03/11 07:11:32;;;;;;;34.13;18.67;;;;;;;-144.73;100.00;54524.69;5058275;28;20036;-72
2023/03/11 07:13:58;;;;;;;35.23;19.07;;;;;;;-144.73;100.00;54555.47;5058743;28;20025;-71
2023/03/11 07:16:28;;;;;;;32.77;18.43;;;;;;;-144.73;100.00;54502.13;5058353;28;20040;-72
2023/03/11 07:18:57;;;;;;;37.57;18.00;;;;;;;-144.73;100.00;54506.22;5058575;28;20142;-72
2023/03/11 07:21:22;;;;;;;33.87;17.30;;;;;;;-144.73;100.00;54530.84;5075829;28;20059;-72
2023/03/11 07:23:52;;;;;;;32.13;17.90;;;;;;;-144.73;100.00;54539.06;5057818;28;20016;-72
2023/03/11 07:26:17;;;;;;;33.33;17.77;;;;;;;-144.73;100.00;54518.53;5076454;28;20028;-72
2023/03/11 07:28:48;;;;;;;36.40;18.40;;;;;;;-144.73;100.00;54539.06;5059443;28;20030;-72
2023/03/11 07:31:22;;;;;;;31.67;16.83;;;;;;;-144.73;100.00;54522.63;5076428;28;20028;-71
2023/03/11 07:33:48;;;;;;;29.27;16.70;;;;;;;-144.73;100.00;54493.91;5059679;28;20425;-72
2023/03/11 07:36:16;;;;;;;29.10;16.90;;;;;;;-144.73;100.00;54514.44;5059154;28;20036;-71
2023/03/11 07:38:42;;;;;;;36.33;15.93;;;;;;;-144.73;100.00;54526.75;5059877;28;20121;-72
2023/03/11 07:41:10;;;;;;;32.53;17.80;;;;;;;-144.73;100.00;54514.44;5059201;28;20028;-72
2023/03/11 07:43:35;;;;;;;31.80;16.50;;;;;;;-144.73;100.00;54522.63;5077370;28;20359;-72
2023/03/11 07:46:12;;;;;;;22.67;13.67;;;;;;;-144.73;100.00;54483.66;5059503;28;20124;-72
2023/03/11 07:48:38;;;;;;;26.10;14.47;;;;;;;-144.73;100.00;54510.31;5077651;28;20020;-71
2023/03/11 07:51:11;;;;;;;28.80;14.60;;;;;;;-144.73;100.00;54498.00;5059989;28;20035;-73
2023/03/11 07:53:36;;;;;;;25.33;13.10;;;;;;;-144.73;99.28;54498.00;5060364;28;20036;-71
2023/03/11 07:56:03;;;;;;;24.93;14.37;;;;;;;-144.73;99.42;54530.84;5058586;28;20024;-72
2023/03/11 07:58:29;;;;;;;31.33;13.40;;;;;;;-144.73;99.37;54506.22;5077106;28;20082;-71
2023/03/11 08:00:55;;;;;;;24.40;12.50;;;;;;;-144.73;98.81;54518.53;5058896;28;20092;-71
2023/03/11 08:03:23;;;;;;;24.63;12.60;;;;;;;-144.73;98.10;54539.06;5058787;28;20029;-72
2023/03/11 08:05:49;;;;;;;22.57;11.53;;;;;;;-144.73;98.62;54506.22;5058109;28;20039;-72
2023/03/11 08:08:14;;;;;;;25.67;11.03;;;;;;;-144.73;98.08;54498.00;5059253;28;20119;-72
2023/03/11 08:10:39;;;;;;;24.80;12.07;;;;;;;-144.73;97.69;54559.59;5059042;28;20025;-71
2023/03/11 08:13:05;;;;;;;22.97;12.77;;;;;;;-144.73;97.89;54571.91;5058057;28;20028;-71
2023/03/11 08:15:30;;;;;;;26.10;12.07;;;;;;;-144.73;97.00;54518.53;5058144;28;20032;-72
2023/03/11 08:17:56;;;;;;;21.17;11.27;;;;;;;-144.73;96.53;54498.00;5074070;28;20043;-73
2023/03/11 08:20:21;;;;;;;22.17;11.27;;;;;;;-144.73;96.63;54504.16;5057160;28;20025;-72
2023/03/11 08:22:47;;;;;;;21.27;9.77;;;;;;;-144.73;95.42;54493.91;5056957;28;20073;-72
2023/03/11 08:25:12;;;;;;;21.30;10.07;;;;;;;-144.73;95.60;54545.22;5054187;28;20465;-72
2023/03/11 08:27:38;;;;;;;21.30;10.37;;;;;;;-144.73;95.17;54539.06;5071251;28;20063;-72
2023/03/11 08:30:05;;;;;;;15.43;9.30;;;;;;;-144.73;93.24;54539.06;5054019;28;20021;-74
2023/03/11 08:32:31;;;;;;;16.83;9.10;;;;;;;-144.73;94.59;54502.13;5069501;28;20055;-74
2023/03/11 08:34:57;;;;;;;20.30;9.80;;;;;;;-144.73;93.54;54530.84;5053358;28;20472;-72
2023/03/11 08:37:22;;;;;;;15.23;9.00;;;;;;;-144.73;93.60;54493.91;5070884;28;20047;-73
2023/03/11 08:39:48;;;;;;;18.10;8.57;;;;;;;-144.73;92.67;54514.44;5053250;28;20446;-73
2023/03/11 08:42:15;;;;;;;18.57;9.03;;;;;;;-144.73;92.39;54506.22;5032572;28;20106;-73
2023/03/11 08:44:40;;;;;;;17.43;8.87;;;;;;;-144.73;91.31;54506.22;5044420;28;20035;-73
2023/03/11 08:47:06;;;;;;;14.63;7.57;;;;;;;-144.73;91.27;54493.91;5036068;28;20041;-74
2023/03/11 08:49:31;;;;;;;19.30;9.57;;;;;;;-144.73;91.51;54510.31;5047351;28;20028;-74
2023/03/11 08:51:56;;;;;;;19.40;8.80;;;;;;;-144.73;90.88;54506.22;5063155;28;20058;-74
2023/03/11 08:54:22;;;;;;;12.10;6.53;;;;;;;-144.73;90.04;54514.44;5046342;28;20032;-74
2023/03/11 08:56:47;;;;;;;14.17;6.07;;;;;;;-144.73;89.00;54518.53;5046583;28;20041;-74
2023/03/11 08:59:13;;;;;;;11.90;6.00;;;;;;;-144.73;87.74;54500.06;5063395;28;20095;-74
2023/03/11 09:01:41;;;;;;;14.87;6.07;;;;;;;-144.73;87.61;54516.47;5063707;28;20439;-74
2023/03/11 09:04:06;;;;;;;14.70;6.40;;;;;;;-144.73;86.66;54506.22;5045083;28;20042;-75
2023/03/11 09:06:32;;;;;;;14.93;6.30;;;;;;;-144.73;87.73;54473.38;5051268;28;20032;-75
2023/03/11 09:08:57;;;;;;;9.20;4.87;;;;;;;-144.73;87.71;54498.00;5044907;28;20052;-75
2023/03/11 09:11:23;;;;;;;14.47;5.60;;;;;;;-144.73;87.11;54498.00;5044955;28;20059;-75
2023/03/11 09:13:49;;;;;;;10.93;5.40;;;;;;;-144.73;88.01;54518.53;5047259;28;20025;-75
2023/03/11 09:16:20;;;;;;;16.60;6.33;;;;;;;-144.73;87.89;54510.31;5062593;28;20173;-74
2023/03/11 09:18:46;;;;;;;15.05;5.43;;;;;;;-144.73;86.60;54526.75;5042043;28;20013;-75
2023/03/11 09:21:11;;;;;;;18.97;5.70;;;;;;;-144.73;86.51;54473.38;5046378;28;20128;-74
2023/03/11 09:23:37;;;;;;;8.07;4.67;;;;;;;-144.73;85.15;54506.22;5045182;28;20020;-74
2023/03/11 09:26:03;;;;;;;16.40;4.70;;;;;;;-144.73;84.40;54514.44;5045809;28;20028;-75
2023/03/11 09:28:28;;;;;;;14.07;5.27;;;;;;;-144.73;84.96;54514.44;5046549;28;20024;-75
2023/03/11 09:30:53;;;;;;;15.95;4.68;;;;;;;-144.73;85.95;54539.06;5044236;28;20017;-76
2023/03/11 09:33:19;;;;;;;10.13;5.03;;;;;;;-144.73;85.60;54502.13;5045347;28;20027;-73
2023/03/11 09:35:44;;;;;;;14.82;5.22;;;;;;;-144.73;83.86;54506.22;5044705;28;20025;-72
2023/03/11 09:38:10;;;;;;;12.65;5.07;;;;;;;-144.73;84.18;54493.91;5043062;28;20036;-72
2023/03/11 09:40:50;;;;;;;8.63;3.87;;;;;;;-144.73;83.99;54477.47;5045216;28;20017;-73
2023/03/11 09:43:49;;;;;;;10.70;4.18;;;;;;;-144.73;83.25;54506.22;5043871;28;20089;-73
2023/03/11 09:46:33;;;;;;;12.43;4.50;;;;;;;-144.73;82.65;54456.97;5016364;28;20036;-76
2023/03/11 09:49:26;;;;;;;16.77;5.47;;;;;;;-144.73;84.21;54489.81;5047611;28;20029;-73
2023/03/11 09:52:05;;;;;;;12.23;4.93;;;;;;;-144.73;85.40;54539.06;5047046;28;20036;-74
2023/03/11 09:54:38;;;;;;;14.13;5.03;;;;;;;-144.73;83.53;54518.53;5046119;28;20074;-74
2023/03/11 09:57:05;;;;;;;11.52;5.03;;;;;;;-144.73;82.44;54473.38;5067016;28;20041;-74
2023/03/11 09:59:32;;;;;;;17.60;4.95;;;;;;;-144.73;84.58;54498.00;5050537;28;20116;-75
2023/03/11 10:01:59;;;;;;;8.02;4.32;;;;;;;-144.73;84.12;54530.84;5047290;28;20028;-74
2023/03/11 10:04:40;;;;;;;14.93;4.05;;;;;;;-144.73;82.13;54498.00;5064087;28;20029;-73
2023/03/11 10:07:13;;;;;;;13.38;3.75;;;;;;;-144.73;83.66;54489.81;5046276;28;20083;-73
2023/03/11 10:09:47;;;;;;;12.65;4.57;;;;;;;-144.73;83.99;54506.22;5038306;28;20016;-74
2023/03/11 10:12:55;;;;;;;21.40;4.80;;;;;;;-144.73;84.20;54498.00;5043702;28;20128;-74
2023/03/11 10:15:34;;;;;;;19.42;4.32;;;;;;;-144.73;81.59;54500.06;5044331;28;20115;-74
2023/03/11 10:18:09;;;;;;;7.03;3.15;;;;;;;-144.73;82.59;54498.00;5064718;28;20025;-73
2023/03/11 10:20:53;;;;;;;9.35;3.40;;;;;;;-144.73;82.70;54528.81;5062488;28;20025;-73
2023/03/11 10:23:43;;;;;;;11.77;4.38;;;;;;;-144.73;81.42;54510.31;5067015;28;20066;-74
2023/03/11 10:26:22;;;;;;;11.50;4.07;;;;;;;-144.73;80.94;54514.44;5048994;28;20056;-74
2023/03/11 10:28:56;;;;;;;15.82;3.30;;;;;;;-144.73;79.94;54446.69;5061773;28;20016;-75
2023/03/11 10:31:29;;;;;;;16.45;3.53;;;;;;;-144.73;80.95;54514.44;5065664;28;20127;-75
2023/03/11 10:34:14;;;;;;;14.00;3.60;;;;;;;-144.73;81.70;54522.63;5050321;28;20023;-74
2023/03/11 10:37:05;;;;;;;8.15;3.38;;;;;;;-144.73;80.58;54498.00;5051929;28;20029;-74
2023/03/11 10:39:32;;;;;;;8.75;3.50;;;;;;;-144.73;80.51;54493.91;5061906;28;20558;-73
2023/03/11 10:42:05;;;;;;;12.63;3.53;;;;;;;-144.73;80.02;54489.81;5049260;28;20048;-74
2023/03/11 10:44:38;;;;;;;14.48;3.75;;;;;;;-144.73;79.90;54502.13;5047179;28;20024;-74
2023/03/11 10:47:04;;;;;;;11.07;3.35;;;;;;;-144.73;80.44;54506.22;5050728;28;20079;-75
2023/03/11 10:49:31;;;;;;;9.98;2.80;;;;;;;-144.73;80.10;54493.91;5044756;28;20016;-72
2023/03/11 10:51:57;;;;;;;14.80;3.97;;;;;;;-144.73;79.03;54481.59;5050465;28;20046;-73
2023/03/11 10:54:37;;;;;;;6.28;3.40;;;;;;;-144.73;78.37;54506.22;5067453;28;20123;-73
2023/03/11 10:57:17;;;;;;;10.70;3.28;;;;;;;-144.73;80.32;54502.13;5052318;28;20029;-72
2023/03/11 10:59:49;;;;;;;12.23;3.58;;;;;;;-144.73;79.27;54506.22;5054780;28;20021;-72